KSDF/SDF METAR and TAF weather

Enter ICAO airport designator
Station Type Date Time Source
KSDF METAR 2019/06/17 06:56 UTC NOAA

KSDF 170656Z 15004KT 10SM -RA FEW005 FEW110 BKN140 OVC200 21/19 A2991 RMK AO2 SLP121 P0001 T02060189 $


Station Type Date Time Source
KSDF Decoded METAR 2019/06/17 06:56 UTC NOAA

STANDIFORD FIELD, KY, United States (KSDF) 38-11N 085-44W 146M
Jun 17, 2019 - 02:56 AM EDT / 2019.06.17 0656 UTC
Wind: from the SSE (150 degrees) at 5 MPH (4 KT):0
Visibility: 10 mile(s):0
Sky conditions: overcast
Weather: light rain
Precipitation last hour: 0.01 inches
Temperature: 69.1 F (20.6 C)
Dew Point: 66.0 F (18.9 C)
Relative Humidity: 89%
Pressure (altimeter): 29.91 in. Hg (1012 hPa)
ob: KSDF 170656Z 15004KT 10SM -RA FEW005 FEW110 BKN140 OVC200 21/19 A2991 RMK AO2 SLP121 P0001 T02060189
cycle: 7

Station Type Date Time Source
KSDF TAF 2019/06/17 06:30 UTC NOAA

TAF KSDF 170529Z 1706/1812 15005KT P6SM SHRA FEW005 BKN070
FM170800 19007KT P6SM OVC050
FM171600 23010KT P6SM SCT050 BKN110 PROB30 1720/1801 2SM -TSRA BKN040CB
FM180300 18004KT P6SM VCSH BKN040

Example: see airport list